createdAt,value
2023-03-03T00:04:28.016Z,8.50
2023-03-03T00:09:51.118Z,6.95
2023-03-03T00:15:16.838Z,7.35
2023-03-03T00:26:19.462Z,6.72
2023-03-03T00:31:48.411Z,5.93
2023-03-03T00:37:30.642Z,6.30
2023-03-03T00:42:56.966Z,6.30
2023-03-03T00:48:26.889Z,5.60
2023-03-03T00:53:50.853Z,6.00
2023-03-03T00:59:16.987Z,6.15
2023-03-03T01:04:45.601Z,6.47
2023-03-03T01:10:09.121Z,5.68
2023-03-03T01:15:33.712Z,6.15
2023-03-03T01:21:00.369Z,6.18
2023-03-03T01:26:29.529Z,5.95
2023-03-03T01:31:59.728Z,6.80
2023-03-03T01:37:27.200Z,6.07
2023-03-03T01:42:55.267Z,6.88
2023-03-03T01:48:26.458Z,5.88
2023-03-03T01:53:57.330Z,5.40
2023-03-03T01:59:27.366Z,5.28
2023-03-03T02:04:57.725Z,5.95
2023-03-03T02:10:27.671Z,8.05
2023-03-03T02:21:27.733Z,6.97
2023-03-03T02:26:51.911Z,7.03
2023-03-03T02:32:20.442Z,6.38
2023-03-03T02:37:44.364Z,6.65
2023-03-03T02:43:10.520Z,8.05
2023-03-03T02:48:37.538Z,8.57
2023-03-03T02:54:00.708Z,11.07
2023-03-03T02:59:32.935Z,12.35
2023-03-03T03:05:08.973Z,11.10
2023-03-03T03:10:39.839Z,14.07
2023-03-03T03:16:06.114Z,12.48
2023-03-03T03:21:29.838Z,11.15
2023-03-03T03:26:58.796Z,8.93
2023-03-03T03:32:24.127Z,7.38
2023-03-03T03:43:21.476Z,8.43
2023-03-03T03:48:49.007Z,8.77
2023-03-03T03:54:20.765Z,9.05
2023-03-03T03:59:50.941Z,10.45
2023-03-03T04:05:21.616Z,10.90
2023-03-03T04:10:45.765Z,11.13
2023-03-03T04:16:14.838Z,14.23
2023-03-03T04:21:40.184Z,11.43
2023-03-03T04:27:09.875Z,11.07
2023-03-03T04:32:39.680Z,10.48
2023-03-03T04:38:11.704Z,10.23
2023-03-03T04:43:40.447Z,11.13
2023-03-03T04:49:09.780Z,8.90
2023-03-03T04:54:41.170Z,12.10
2023-03-03T05:00:08.998Z,11.95
2023-03-03T05:05:34.229Z,12.23
2023-03-03T05:10:59.834Z,10.88
2023-03-03T05:16:26.507Z,10.82
2023-03-03T05:21:55.460Z,10.23
2023-03-03T05:27:21.152Z,13.07
2023-03-03T05:38:14.434Z,15.32
2023-03-03T05:43:44.588Z,15.23
2023-03-03T05:49:11.825Z,16.25
2023-03-03T05:54:34.700Z,17.50
2023-03-03T06:00:05.740Z,16.02
2023-03-03T06:05:36.660Z,9.55
2023-03-03T06:10:59.321Z,10.55
2023-03-03T06:16:28.703Z,10.50
2023-03-03T06:21:59.506Z,10.60
2023-03-03T06:27:29.616Z,9.88
2023-03-03T06:33:00.056Z,11.20
2023-03-03T06:38:28.033Z,9.98
2023-03-03T06:43:53.964Z,11.57
2023-03-03T06:49:18.813Z,14.70
2023-03-03T06:54:45.834Z,12.88
2023-03-03T07:00:16.908Z,14.90
2023-03-03T07:05:42.992Z,15.75
2023-03-03T07:11:14.253Z,15.63
2023-03-03T07:16:39.422Z,15.32
2023-03-03T07:22:16.008Z,12.82
2023-03-03T07:27:39.052Z,13.07
2023-03-03T07:33:16.493Z,13.63
2023-03-03T07:38:52.160Z,13.40
2023-03-03T07:44:22.434Z,14.48
2023-03-03T07:49:45.276Z,12.73
2023-03-03T07:55:28.201Z,12.80
2023-03-03T08:01:13.920Z,12.10
2023-03-03T08:06:52.535Z,12.43
2023-03-03T08:12:26.183Z,15.35
2023-03-03T08:17:56.231Z,11.88
2023-03-03T08:23:20.098Z,10.20
2023-03-03T08:28:50.490Z,11.27
2023-03-03T08:34:18.564Z,14.65
2023-03-03T08:39:47.434Z,13.27
2023-03-03T08:45:11.970Z,13.20
2023-03-03T08:50:36.983Z,14.95
2023-03-03T08:56:06.934Z,13.47
2023-03-03T09:01:31.753Z,14.05
2023-03-03T09:06:56.661Z,11.82
2023-03-03T09:12:20.193Z,11.43
2023-03-03T09:17:46.468Z,10.25
2023-03-03T09:23:29.530Z,12.95
2023-03-03T09:28:52.811Z,11.90
2023-03-03T09:34:23.579Z,11.30
2023-03-03T09:39:53.488Z,11.32
2023-03-03T09:45:35.732Z,11.03
2023-03-03T09:51:14.510Z,10.93
2023-03-03T09:56:45.610Z,10.90
2023-03-03T10:02:24.779Z,10.38
2023-03-03T10:07:55.656Z,10.60
2023-03-03T10:13:32.811Z,10.95
2023-03-03T10:18:59.540Z,9.68
2023-03-03T10:24:28.796Z,11.67
2023-03-03T10:30:02.133Z,11.48
2023-03-03T10:35:34.663Z,10.98
2023-03-03T10:41:04.363Z,11.50
2023-03-03T10:46:41.489Z,9.45
2023-03-03T10:52:23.648Z,11.52
2023-03-03T10:57:52.345Z,10.90
2023-03-03T11:03:37.929Z,9.25
2023-03-03T11:09:12.242Z,11.73
2023-03-03T11:14:48.000Z,10.93
2023-03-03T11:20:23.343Z,10.35
2023-03-03T11:25:53.174Z,10.40
2023-03-03T11:31:30.670Z,9.93
2023-03-03T11:36:59.350Z,9.10
2023-03-03T11:42:27.525Z,11.10
2023-03-03T11:47:59.588Z,7.80
2023-03-03T11:53:33.010Z,10.07
2023-03-03T11:59:06.954Z,9.30
2023-03-03T12:04:38.762Z,9.10
2023-03-03T12:10:10.333Z,9.15
2023-03-03T12:15:42.558Z,8.40
2023-03-03T12:21:19.125Z,8.90
2023-03-03T12:26:49.112Z,9.80
2023-03-03T12:32:21.817Z,9.40
2023-03-03T12:37:52.207Z,9.88
2023-03-03T12:43:24.778Z,8.38
2023-03-03T12:48:48.580Z,7.85
2023-03-03T12:54:20.151Z,10.43
2023-03-03T12:59:48.078Z,10.75
2023-03-03T13:05:20.547Z,8.90
2023-03-03T13:10:54.727Z,10.63
2023-03-03T13:16:31.940Z,9.02
2023-03-03T13:22:09.578Z,9.95
2023-03-03T13:27:38.134Z,10.18
2023-03-03T13:33:10.302Z,8.93
2023-03-03T13:38:34.728Z,8.80
2023-03-03T13:44:05.071Z,10.60
2023-03-03T13:49:47.259Z,10.45
2023-03-03T13:55:13.092Z,11.38
2023-03-03T14:00:43.998Z,11.57
2023-03-03T14:06:11.644Z,10.90
2023-03-03T14:11:44.250Z,11.80
2023-03-03T14:17:15.355Z,12.27
2023-03-03T14:22:43.093Z,12.23
2023-03-03T14:28:14.107Z,13.75
2023-03-03T14:33:44.481Z,13.18
2023-03-03T14:39:25.846Z,13.57
2023-03-03T14:44:55.770Z,13.68
2023-03-03T14:50:34.527Z,12.85
2023-03-03T14:56:15.129Z,12.68
2023-03-03T15:01:43.819Z,15.30
2023-03-03T15:07:30.744Z,12.77
2023-03-03T15:12:53.142Z,12.82
2023-03-03T15:18:21.664Z,12.25
2023-03-03T15:23:56.186Z,14.07
2023-03-03T15:29:26.211Z,12.25
2023-03-03T15:34:59.819Z,13.73
2023-03-03T15:40:31.027Z,12.25
2023-03-03T15:45:58.322Z,12.45
2023-03-03T15:51:28.378Z,12.50
2023-03-03T15:56:56.743Z,11.65
2023-03-03T16:02:27.331Z,12.68
2023-03-03T16:07:57.570Z,13.05
2023-03-03T16:13:33.542Z,12.73
2023-03-03T16:19:08.167Z,13.32
2023-03-03T16:24:40.387Z,12.05
2023-03-03T16:30:15.146Z,13.43
2023-03-03T16:35:40.970Z,12.77
2023-03-03T16:41:12.889Z,11.88
2023-03-03T16:46:39.964Z,12.35
2023-03-03T16:52:11.742Z,13.07
2023-03-03T16:57:42.622Z,13.55
2023-03-03T17:03:20.941Z,14.20
2023-03-03T17:08:51.900Z,14.13
2023-03-03T17:14:28.873Z,12.88
2023-03-03T17:20:00.999Z,12.70
2023-03-03T17:25:35.350Z,12.23
2023-03-03T17:31:02.442Z,12.65
2023-03-03T17:36:29.349Z,12.10
2023-03-03T17:41:56.950Z,13.60
2023-03-03T17:47:27.950Z,12.50
2023-03-03T17:52:57.232Z,12.35
2023-03-03T17:58:44.865Z,11.27
2023-03-03T18:04:25.072Z,11.43
2023-03-03T18:09:54.594Z,11.02
2023-03-03T18:15:28.492Z,11.65
2023-03-03T18:21:01.149Z,12.43
2023-03-03T18:26:33.471Z,11.75
2023-03-03T18:32:18.500Z,11.20
2023-03-03T18:37:45.606Z,9.77
2023-03-03T18:43:35.200Z,11.25
2023-03-03T18:48:58.717Z,9.98
2023-03-03T18:54:33.405Z,8.35
2023-03-03T19:00:14.096Z,7.90
2023-03-03T19:05:40.290Z,7.90
2023-03-03T19:11:04.286Z,8.88
2023-03-03T19:16:38.497Z,8.40
2023-03-03T19:22:22.241Z,9.03
2023-03-03T19:27:59.623Z,9.30
2023-03-03T19:33:33.344Z,9.68
2023-03-03T19:39:03.463Z,10.45
2023-03-03T19:44:47.957Z,10.13
2023-03-03T19:50:23.632Z,9.90
2023-03-03T19:56:00.370Z,8.70
2023-03-03T20:01:37.283Z,10.90
2023-03-03T20:07:05.313Z,11.52
2023-03-03T20:12:40.452Z,11.25
2023-03-03T20:18:16.367Z,10.60
2023-03-03T20:23:50.158Z,10.40
2023-03-03T20:29:26.967Z,11.02
2023-03-03T20:35:01.794Z,9.23
2023-03-03T20:40:33.706Z,11.05
2023-03-03T20:46:04.119Z,9.70
2023-03-03T20:51:40.559Z,9.88
2023-03-03T20:57:13.191Z,10.77
2023-03-03T21:02:44.766Z,10.00
2023-03-03T21:08:11.420Z,9.18
2023-03-03T21:13:41.379Z,9.23
2023-03-03T21:19:11.395Z,9.75
2023-03-03T21:24:49.877Z,9.70
2023-03-03T21:30:14.488Z,10.40
2023-03-03T21:35:58.230Z,10.73
2023-03-03T21:41:28.439Z,10.20
2023-03-03T21:46:58.593Z,9.95
2023-03-03T21:52:27.624Z,10.63
2023-03-03T21:57:52.309Z,10.07
2023-03-03T22:03:20.857Z,9.02
2023-03-03T22:08:50.037Z,8.88
2023-03-03T22:14:20.103Z,9.18
2023-03-03T22:19:46.717Z,9.07
2023-03-03T22:25:11.545Z,8.15
2023-03-03T22:30:41.946Z,8.93
2023-03-03T22:36:08.936Z,9.10
2023-03-03T22:41:38.565Z,8.63
2023-03-03T22:47:08.031Z,8.38
2023-03-03T22:52:30.994Z,8.70
2023-03-03T22:57:59.782Z,8.17
2023-03-03T23:03:26.212Z,9.60
2023-03-03T23:08:54.893Z,8.27
2023-03-03T23:14:17.959Z,7.55
2023-03-03T23:19:43.625Z,7.47
2023-03-03T23:25:13.820Z,8.23
2023-03-03T23:30:37.924Z,7.90
2023-03-03T23:36:08.576Z,8.00
2023-03-03T23:41:31.582Z,10.52
2023-03-03T23:46:54.338Z,10.15
2023-03-03T23:52:24.328Z,8.90
2023-03-03T23:57:52.840Z,8.98
